sensor_id;sensor_type;location;lat;lon;timestamp;P1;durP1;ratioP1;P2;durP2;ratioP2
49582;SDS011;36329;48.816;44.624;2023-08-06T08:47:01;8;;;2.3;;
49582;SDS011;36329;48.816;44.624;2023-08-06T08:50:04;6.4;;;2;;
49582;SDS011;36329;48.816;44.624;2023-08-06T08:53:08;4.9;;;2.3;;
49582;SDS011;36329;48.816;44.624;2023-08-06T08:56:10;5.2;;;2.2;;
49582;SDS011;36329;48.816;44.624;2023-08-06T08:59:14;4.7;;;2.2;;
49582;SDS011;36329;48.816;44.624;2023-08-06T09:02:16;6;;;2.1;;
49582;SDS011;36329;48.816;44.624;2023-08-06T09:05:20;8.1;;;2;;
49582;SDS011;36329;48.816;44.624;2023-08-06T09:08:24;5.3;;;2.1;;
49582;SDS011;36329;48.816;44.624;2023-08-06T09:11:30;5.4;;;2.1;;
49582;SDS011;36329;48.816;44.624;2023-08-06T09:14:38;6.3;;;2;;
49582;SDS011;36329;48.816;44.624;2023-08-06T09:17:40;5.9;;;2.2;;
49582;SDS011;36329;48.816;44.624;2023-08-06T09:20:42;7.5;;;2.1;;
49582;SDS011;36329;48.816;44.624;2023-08-06T09:23:44;5;;;1.9;;
49582;SDS011;36329;48.816;44.624;2023-08-06T09:26:46;5.5;;;1.8;;
49582;SDS011;36329;48.816;44.624;2023-08-06T09:29:48;5;;;2;;
49582;SDS011;36329;48.816;44.624;2023-08-06T09:32:50;7.1;;;2.2;;
49582;SDS011;36329;48.816;44.624;2023-08-06T09:35:52;4;;;2.1;;
49582;SDS011;36329;48.816;44.624;2023-08-06T09:38:54;6.9;;;2;;
49582;SDS011;36329;48.816;44.624;2023-08-06T09:41:57;5.4;;;1.9;;
49582;SDS011;36329;48.816;44.624;2023-08-06T09:45:06;6;;;2;;
49582;SDS011;36329;48.816;44.624;2023-08-06T09:48:09;5.3;;;2;;
49582;SDS011;36329;48.816;44.624;2023-08-06T09:51:11;4.1;;;1.7;;
49582;SDS011;36329;48.816;44.624;2023-08-06T09:54:15;8;;;1.9;;
49582;SDS011;36329;48.816;44.624;2023-08-06T09:57:18;7.7;;;2;;
49582;SDS011;36329;48.816;44.624;2023-08-06T10:00:21;4.7;;;2;;
49582;SDS011;36329;48.816;44.624;2023-08-06T10:03:24;6.3;;;2.1;;
49582;SDS011;36329;48.816;44.624;2023-08-06T10:06:27;8.2;;;1.8;;
49582;SDS011;36329;48.816;44.624;2023-08-06T10:09:35;5;;;1.9;;
49582;SDS011;36329;48.816;44.624;2023-08-06T10:12:39;9.1;;;1.8;;
49582;SDS011;36329;48.816;44.624;2023-08-06T10:15:45;4.7;;;1.8;;
49582;SDS011;36329;48.816;44.624;2023-08-06T10:18:47;9;;;2.1;;
49582;SDS011;36329;48.816;44.624;2023-08-06T10:25:11;9.7;;;2;;
49582;SDS011;36329;48.816;44.624;2023-08-06T10:28:19;7.5;;;1.8;;
49582;SDS011;36329;48.816;44.624;2023-08-06T10:31:28;5.1;;;2;;
49582;SDS011;36329;48.816;44.624;2023-08-06T10:34:54;5.7;;;1.8;;
49582;SDS011;36329;48.816;44.624;2023-08-06T10:37:58;5.6;;;1.9;;
49582;SDS011;36329;48.816;44.624;2023-08-06T10:41:01;4.9;;;1.8;;
49582;SDS011;36329;48.816;44.624;2023-08-06T10:44:05;7.8;;;2.1;;
49582;SDS011;36329;48.816;44.624;2023-08-06T10:50:35;6.4;;;1.9;;
49582;SDS011;36329;48.816;44.624;2023-08-06T10:53:37;4.9;;;1.8;;
49582;SDS011;36329;48.816;44.624;2023-08-06T10:56:40;8.5;;;1.8;;
49582;SDS011;36329;48.816;44.624;2023-08-06T10:59:42;5.7;;;1.7;;
49582;SDS011;36329;48.816;44.624;2023-08-06T11:02:44;5.3;;;1.8;;
49582;SDS011;36329;48.816;44.624;2023-08-06T11:05:49;5;;;1.9;;
49582;SDS011;36329;48.816;44.624;2023-08-06T11:08:52;2.9;;;1.8;;
49582;SDS011;36329;48.816;44.624;2023-08-06T11:11:55;6.4;;;1.9;;
49582;SDS011;36329;48.816;44.624;2023-08-06T11:14:57;7.8;;;2.2;;
49582;SDS011;36329;48.816;44.624;2023-08-06T11:17:59;4.1;;;2.1;;
49582;SDS011;36329;48.816;44.624;2023-08-06T11:21:01;7.7;;;2;;
49582;SDS011;36329;48.816;44.624;2023-08-06T11:24:04;8.7;;;1.9;;
49582;SDS011;36329;48.816;44.624;2023-08-06T11:27:11;5.1;;;1.9;;
49582;SDS011;36329;48.816;44.624;2023-08-06T11:30:14;8;;;1.9;;
49582;SDS011;36329;48.816;44.624;2023-08-06T11:33:19;9.4;;;1.9;;
49582;SDS011;36329;48.816;44.624;2023-08-06T11:36:30;5.6;;;1.8;;
49582;SDS011;36329;48.816;44.624;2023-08-06T11:39:33;6.9;;;2;;
49582;SDS011;36329;48.816;44.624;2023-08-06T11:42:35;7;;;1.9;;
49582;SDS011;36329;48.816;44.624;2023-08-06T11:45:37;6.7;;;2.1;;
49582;SDS011;36329;48.816;44.624;2023-08-06T11:51:53;6.5;;;2.1;;
49582;SDS011;36329;48.816;44.624;2023-08-06T11:55:04;7.1;;;1.8;;
49582;SDS011;36329;48.816;44.624;2023-08-06T11:58:08;4.9;;;1.9;;
49582;SDS011;36329;48.816;44.624;2023-08-06T12:01:11;6.7;;;2.1;;
49582;SDS011;36329;48.816;44.624;2023-08-06T12:04:13;5.5;;;1.7;;
49582;SDS011;36329;48.816;44.624;2023-08-06T12:07:15;5.3;;;2.1;;
49582;SDS011;36329;48.816;44.624;2023-08-06T12:10:18;7.5;;;2;;
49582;SDS011;36329;48.816;44.624;2023-08-06T12:13:21;6;;;2.1;;
49582;SDS011;36329;48.816;44.624;2023-08-06T12:16:23;6.1;;;2.4;;
49582;SDS011;36329;48.816;44.624;2023-08-06T12:19:25;5.5;;;2;;
49582;SDS011;36329;48.816;44.624;2023-08-06T12:22:27;5;;;2.1;;
49582;SDS011;36329;48.816;44.624;2023-08-06T12:25:29;4.1;;;2.1;;
49582;SDS011;36329;48.816;44.624;2023-08-06T12:28:31;7.4;;;2.3;;
49582;SDS011;36329;48.816;44.624;2023-08-06T12:31:33;8.5;;;2.1;;
49582;SDS011;36329;48.816;44.624;2023-08-06T12:34:35;4.8;;;2;;
49582;SDS011;36329;48.816;44.624;2023-08-06T12:37:39;5.6;;;2.1;;
49582;SDS011;36329;48.816;44.624;2023-08-06T12:40:41;10.3;;;2.3;;
49582;SDS011;36329;48.816;44.624;2023-08-06T12:43:42;4.3;;;2.3;;
49582;SDS011;36329;48.816;44.624;2023-08-06T12:46:46;5.1;;;1.9;;
49582;SDS011;36329;48.816;44.624;2023-08-06T12:49:47;6.5;;;2;;
49582;SDS011;36329;48.816;44.624;2023-08-06T12:52:50;7.9;;;2;;
49582;SDS011;36329;48.816;44.624;2023-08-06T12:55:52;6.1;;;2;;
49582;SDS011;36329;48.816;44.624;2023-08-06T12:58:54;6.7;;;2.2;;
49582;SDS011;36329;48.816;44.624;2023-08-06T13:01:56;6.2;;;2.2;;
49582;SDS011;36329;48.816;44.624;2023-08-06T13:04:58;4.1;;;2.3;;
49582;SDS011;36329;48.816;44.624;2023-08-06T13:08:00;5.2;;;2;;
49582;SDS011;36329;48.816;44.624;2023-08-06T13:11:02;7.4;;;2.3;;
49582;SDS011;36329;48.816;44.624;2023-08-06T13:14:04;4.5;;;2.3;;
49582;SDS011;36329;48.816;44.624;2023-08-06T13:17:07;7.8;;;2.4;;
49582;SDS011;36329;48.816;44.624;2023-08-06T13:20:09;9.8;;;2.3;;
49582;SDS011;36329;48.816;44.624;2023-08-06T13:23:11;9.4;;;2.5;;
49582;SDS011;36329;48.816;44.624;2023-08-06T13:26:13;6.6;;;2.6;;
49582;SDS011;36329;48.816;44.624;2023-08-06T13:29:15;8.1;;;2.4;;
49582;SDS011;36329;48.816;44.624;2023-08-06T13:32:17;6.6;;;2.6;;
49582;SDS011;36329;48.816;44.624;2023-08-06T13:35:19;14.8;;;2.7;;
49582;SDS011;36329;48.816;44.624;2023-08-06T13:38:21;6.3;;;2.5;;
49582;SDS011;36329;48.816;44.624;2023-08-06T13:41:23;6.6;;;2.4;;
49582;SDS011;36329;48.816;44.624;2023-08-06T13:44:25;4.7;;;1.9;;
49582;SDS011;36329;48.816;44.624;2023-08-06T13:47:27;3.9;;;2.2;;
49582;SDS011;36329;48.816;44.624;2023-08-06T13:50:29;6.5;;;2.6;;
49582;SDS011;36329;48.816;44.624;2023-08-06T13:53:31;5.4;;;2.4;;
49582;SDS011;36329;48.816;44.624;2023-08-06T13:56:34;7.9;;;2.6;;
49582;SDS011;36329;48.816;44.624;2023-08-06T13:59:37;5.5;;;2.5;;
49582;SDS011;36329;48.816;44.624;2023-08-06T14:02:39;6.7;;;2.3;;
49582;SDS011;36329;48.816;44.624;2023-08-06T14:05:42;8.9;;;2.3;;
49582;SDS011;36329;48.816;44.624;2023-08-06T14:08:44;4.4;;;2.4;;
49582;SDS011;36329;48.816;44.624;2023-08-06T14:11:46;5.3;;;2.3;;
49582;SDS011;36329;48.816;44.624;2023-08-06T14:14:48;3.7;;;2.3;;
49582;SDS011;36329;48.816;44.624;2023-08-06T14:17:50;6.6;;;2.5;;
49582;SDS011;36329;48.816;44.624;2023-08-06T14:20:51;6.8;;;2.8;;
49582;SDS011;36329;48.816;44.624;2023-08-06T14:23:54;7.6;;;2.5;;
49582;SDS011;36329;48.816;44.624;2023-08-06T14:26:56;5.2;;;2.4;;
49582;SDS011;36329;48.816;44.624;2023-08-06T14:29:58;6.9;;;2.6;;
49582;SDS011;36329;48.816;44.624;2023-08-06T14:32:59;7.7;;;2.7;;
49582;SDS011;36329;48.816;44.624;2023-08-06T14:36:02;5.7;;;2.5;;
49582;SDS011;36329;48.816;44.624;2023-08-06T14:39:03;5.5;;;2.4;;
49582;SDS011;36329;48.816;44.624;2023-08-06T14:42:05;8.3;;;2.7;;
49582;SDS011;36329;48.816;44.624;2023-08-06T14:45:08;8.1;;;2.8;;
49582;SDS011;36329;48.816;44.624;2023-08-06T14:48:10;6.2;;;2.7;;
49582;SDS011;36329;48.816;44.624;2023-08-06T14:51:12;5.8;;;2.7;;
49582;SDS011;36329;48.816;44.624;2023-08-06T14:54:13;4.7;;;2.6;;
49582;SDS011;36329;48.816;44.624;2023-08-06T14:57:15;7.2;;;2.8;;
49582;SDS011;36329;48.816;44.624;2023-08-06T15:00:18;10.5;;;3;;
49582;SDS011;36329;48.816;44.624;2023-08-06T15:03:20;5.2;;;2.6;;
49582;SDS011;36329;48.816;44.624;2023-08-06T15:06:22;10.5;;;3.1;;
49582;SDS011;36329;48.816;44.624;2023-08-06T15:09:24;7.9;;;2.8;;
49582;SDS011;36329;48.816;44.624;2023-08-06T15:12:26;11.6;;;3.3;;
49582;SDS011;36329;48.816;44.624;2023-08-06T15:15:28;9;;;3;;
49582;SDS011;36329;48.816;44.624;2023-08-06T15:18:30;14.5;;;3.7;;
49582;SDS011;36329;48.816;44.624;2023-08-06T15:21:32;7.9;;;2.9;;
49582;SDS011;36329;48.816;44.624;2023-08-06T15:24:34;7.6;;;2.8;;
49582;SDS011;36329;48.816;44.624;2023-08-06T15:27:36;9.2;;;3;;
49582;SDS011;36329;48.816;44.624;2023-08-06T15:30:38;7.7;;;3;;
49582;SDS011;36329;48.816;44.624;2023-08-06T15:33:40;8.1;;;3;;
49582;SDS011;36329;48.816;44.624;2023-08-06T15:36:42;10;;;2.9;;
49582;SDS011;36329;48.816;44.624;2023-08-06T15:39:44;7.1;;;3;;
49582;SDS011;36329;48.816;44.624;2023-08-06T15:42:46;8.3;;;3;;
49582;SDS011;36329;48.816;44.624;2023-08-06T15:45:48;6.4;;;2.9;;
49582;SDS011;36329;48.816;44.624;2023-08-06T15:48:50;6.6;;;3;;
49582;SDS011;36329;48.816;44.624;2023-08-06T15:51:52;6.3;;;2.9;;
49582;SDS011;36329;48.816;44.624;2023-08-06T15:54:54;5.8;;;3;;
49582;SDS011;36329;48.816;44.624;2023-08-06T15:57:56;7.6;;;2.9;;
49582;SDS011;36329;48.816;44.624;2023-08-06T16:00:58;6.9;;;2.9;;
49582;SDS011;36329;48.816;44.624;2023-08-06T16:04:00;9.4;;;3;;
49582;SDS011;36329;48.816;44.624;2023-08-06T16:07:03;7.9;;;3.2;;
49582;SDS011;36329;48.816;44.624;2023-08-06T16:10:06;9.7;;;3.1;;
49582;SDS011;36329;48.816;44.624;2023-08-06T16:13:08;5;;;2.9;;
49582;SDS011;36329;48.816;44.624;2023-08-06T16:16:10;8.5;;;2.9;;
49582;SDS011;36329;48.816;44.624;2023-08-06T16:19:12;7.7;;;3.2;;
49582;SDS011;36329;48.816;44.624;2023-08-06T16:22:14;11.1;;;3;;
49582;SDS011;36329;48.816;44.624;2023-08-06T16:25:16;10.9;;;3;;
49582;SDS011;36329;48.816;44.624;2023-08-06T16:28:18;8.7;;;3.1;;
49582;SDS011;36329;48.816;44.624;2023-08-06T16:31:20;9.7;;;3.3;;
49582;SDS011;36329;48.816;44.624;2023-08-06T16:34:22;13.5;;;3.4;;
49582;SDS011;36329;48.816;44.624;2023-08-06T16:37:24;10.2;;;3.4;;
49582;SDS011;36329;48.816;44.624;2023-08-06T16:40:26;9.2;;;3.4;;
49582;SDS011;36329;48.816;44.624;2023-08-06T16:43:28;6.9;;;3.3;;
49582;SDS011;36329;48.816;44.624;2023-08-06T16:46:30;11.2;;;3.6;;
49582;SDS011;36329;48.816;44.624;2023-08-06T16:49:32;12.9;;;3.6;;
49582;SDS011;36329;48.816;44.624;2023-08-06T16:52:34;10.6;;;3.5;;
49582;SDS011;36329;48.816;44.624;2023-08-06T16:55:35;10.1;;;3.5;;
49582;SDS011;36329;48.816;44.624;2023-08-06T16:58:38;8.7;;;3.5;;
49582;SDS011;36329;48.816;44.624;2023-08-06T17:01:42;13.6;;;3.5;;
49582;SDS011;36329;48.816;44.624;2023-08-06T17:04:45;10.1;;;3.5;;
49582;SDS011;36329;48.816;44.624;2023-08-06T17:07:56;9.6;;;3.2;;
49582;SDS011;36329;48.816;44.624;2023-08-06T17:11:09;8.6;;;3.3;;
49582;SDS011;36329;48.816;44.624;2023-08-06T17:14:16;8.3;;;3.4;;
49582;SDS011;36329;48.816;44.624;2023-08-06T17:17:22;7.9;;;3.1;;
49582;SDS011;36329;48.816;44.624;2023-08-06T17:20:25;7.9;;;3.4;;
49582;SDS011;36329;48.816;44.624;2023-08-06T17:23:30;11.4;;;3.5;;
49582;SDS011;36329;48.816;44.624;2023-08-06T17:26:36;6.5;;;3.6;;
49582;SDS011;36329;48.816;44.624;2023-08-06T17:29:39;9.7;;;3.7;;
49582;SDS011;36329;48.816;44.624;2023-08-06T17:32:42;12.9;;;3.9;;
49582;SDS011;36329;48.816;44.624;2023-08-06T17:35:44;8.3;;;3.4;;
49582;SDS011;36329;48.816;44.624;2023-08-06T17:38:46;10.7;;;4;;
49582;SDS011;36329;48.816;44.624;2023-08-06T17:41:49;9;;;3.6;;
49582;SDS011;36329;48.816;44.624;2023-08-06T17:44:51;7.7;;;3.7;;
49582;SDS011;36329;48.816;44.624;2023-08-06T17:47:54;7.2;;;3.6;;
49582;SDS011;36329;48.816;44.624;2023-08-06T17:50:58;6.5;;;3.6;;
49582;SDS011;36329;48.816;44.624;2023-08-06T17:54:01;11.7;;;3.9;;
49582;SDS011;36329;48.816;44.624;2023-08-06T17:57:05;9.6;;;4;;
49582;SDS011;36329;48.816;44.624;2023-08-06T18:00:08;10.2;;;3.3;;
49582;SDS011;36329;48.816;44.624;2023-08-06T18:03:11;9;;;4;;
49582;SDS011;36329;48.816;44.624;2023-08-06T18:06:14;8.1;;;3.9;;
49582;SDS011;36329;48.816;44.624;2023-08-06T18:09:18;7.8;;;3.7;;
49582;SDS011;36329;48.816;44.624;2023-08-06T18:12:20;8.4;;;3.7;;
49582;SDS011;36329;48.816;44.624;2023-08-06T18:15:22;8.2;;;3.8;;
49582;SDS011;36329;48.816;44.624;2023-08-06T18:18:25;10.7;;;4;;
49582;SDS011;36329;48.816;44.624;2023-08-06T18:21:27;8.2;;;3.9;;
49582;SDS011;36329;48.816;44.624;2023-08-06T18:24:29;6.1;;;3.9;;
49582;SDS011;36329;48.816;44.624;2023-08-06T18:27:31;10.4;;;3.7;;
49582;SDS011;36329;48.816;44.624;2023-08-06T18:30:33;7.6;;;3.5;;
49582;SDS011;36329;48.816;44.624;2023-08-06T18:33:36;8.6;;;3.8;;
49582;SDS011;36329;48.816;44.624;2023-08-06T18:36:39;6;;;3.6;;
49582;SDS011;36329;48.816;44.624;2023-08-06T18:39:41;10.9;;;3.9;;
49582;SDS011;36329;48.816;44.624;2023-08-06T18:42:43;9.6;;;3.8;;
49582;SDS011;36329;48.816;44.624;2023-08-06T18:45:46;7.3;;;3.6;;
49582;SDS011;36329;48.816;44.624;2023-08-06T18:48:48;7.9;;;4.3;;
49582;SDS011;36329;48.816;44.624;2023-08-06T18:51:50;9.5;;;4.1;;
49582;SDS011;36329;48.816;44.624;2023-08-06T18:54:52;8.6;;;3.7;;
49582;SDS011;36329;48.816;44.624;2023-08-06T18:57:54;7.4;;;3.8;;
49582;SDS011;36329;48.816;44.624;2023-08-06T19:00:56;8.7;;;3.7;;
49582;SDS011;36329;48.816;44.624;2023-08-06T19:03:59;9.5;;;3.6;;
49582;SDS011;36329;48.816;44.624;2023-08-06T19:07:01;10.1;;;3.6;;
49582;SDS011;36329;48.816;44.624;2023-08-06T19:10:03;10;;;4;;
49582;SDS011;36329;48.816;44.624;2023-08-06T19:13:07;9;;;3.9;;
49582;SDS011;36329;48.816;44.624;2023-08-06T19:16:09;8.8;;;3.9;;
49582;SDS011;36329;48.816;44.624;2023-08-06T19:19:12;8;;;3.8;;
49582;SDS011;36329;48.816;44.624;2023-08-06T19:22:14;7;;;3.6;;
49582;SDS011;36329;48.816;44.624;2023-08-06T19:25:16;11.5;;;3.8;;
49582;SDS011;36329;48.816;44.624;2023-08-06T19:28:18;9.5;;;3.8;;
49582;SDS011;36329;48.816;44.624;2023-08-06T19:31:21;6.6;;;3.8;;
49582;SDS011;36329;48.816;44.624;2023-08-06T19:34:23;6.9;;;3.7;;
49582;SDS011;36329;48.816;44.624;2023-08-06T19:37:26;9.1;;;4;;
49582;SDS011;36329;48.816;44.624;2023-08-06T19:40:28;6.8;;;3.9;;
49582;SDS011;36329;48.816;44.624;2023-08-06T19:43:31;7.2;;;4;;
49582;SDS011;36329;48.816;44.624;2023-08-06T19:46:33;7.6;;;3.8;;
49582;SDS011;36329;48.816;44.624;2023-08-06T19:49:35;9.6;;;3.8;;
49582;SDS011;36329;48.816;44.624;2023-08-06T19:52:37;7.9;;;3.8;;
49582;SDS011;36329;48.816;44.624;2023-08-06T19:55:39;8.8;;;4.2;;
49582;SDS011;36329;48.816;44.624;2023-08-06T19:58:42;9.4;;;3.8;;
49582;SDS011;36329;48.816;44.624;2023-08-06T20:01:45;8.7;;;3.8;;
49582;SDS011;36329;48.816;44.624;2023-08-06T20:04:47;9.5;;;4.1;;
49582;SDS011;36329;48.816;44.624;2023-08-06T20:07:49;6.5;;;4.1;;
49582;SDS011;36329;48.816;44.624;2023-08-06T20:10:51;9.7;;;4;;
49582;SDS011;36329;48.816;44.624;2023-08-06T20:13:53;8.1;;;4;;
49582;SDS011;36329;48.816;44.624;2023-08-06T20:16:55;9;;;4.2;;
49582;SDS011;36329;48.816;44.624;2023-08-06T20:19:58;8.9;;;4.1;;
49582;SDS011;36329;48.816;44.624;2023-08-06T20:23:00;7.2;;;4.1;;
49582;SDS011;36329;48.816;44.624;2023-08-06T20:26:02;10.8;;;4;;
49582;SDS011;36329;48.816;44.624;2023-08-06T20:29:04;7.7;;;4.2;;
49582;SDS011;36329;48.816;44.624;2023-08-06T20:32:06;8;;;3.9;;
49582;SDS011;36329;48.816;44.624;2023-08-06T20:35:08;7.7;;;4.2;;
49582;SDS011;36329;48.816;44.624;2023-08-06T20:38:10;7.6;;;4.2;;
49582;SDS011;36329;48.816;44.624;2023-08-06T20:41:13;8.9;;;4.4;;
49582;SDS011;36329;48.816;44.624;2023-08-06T20:44:15;6.9;;;3.8;;
49582;SDS011;36329;48.816;44.624;2023-08-06T20:47:17;7.5;;;3.7;;
49582;SDS011;36329;48.816;44.624;2023-08-06T20:50:19;7.7;;;3.4;;
49582;SDS011;36329;48.816;44.624;2023-08-06T20:53:21;6.6;;;3.4;;
49582;SDS011;36329;48.816;44.624;2023-08-06T20:56:23;8.7;;;3.6;;
49582;SDS011;36329;48.816;44.624;2023-08-06T20:59:25;8.1;;;3.6;;
49582;SDS011;36329;48.816;44.624;2023-08-06T21:02:27;8;;;3.4;;
49582;SDS011;36329;48.816;44.624;2023-08-06T21:05:29;7.6;;;3.3;;
49582;SDS011;36329;48.816;44.624;2023-08-06T21:08:31;6.6;;;3.3;;
49582;SDS011;36329;48.816;44.624;2023-08-06T21:11:34;7.7;;;3.3;;
49582;SDS011;36329;48.816;44.624;2023-08-06T21:14:36;8.8;;;3.3;;
49582;SDS011;36329;48.816;44.624;2023-08-06T21:17:38;7.6;;;3.2;;
49582;SDS011;36329;48.816;44.624;2023-08-06T21:20:39;6.4;;;3.4;;
49582;SDS011;36329;48.816;44.624;2023-08-06T21:23:42;6.1;;;3.2;;
49582;SDS011;36329;48.816;44.624;2023-08-06T21:26:44;7.9;;;3.3;;
49582;SDS011;36329;48.816;44.624;2023-08-06T21:29:46;6.9;;;3.1;;
49582;SDS011;36329;48.816;44.624;2023-08-06T21:32:48;8.3;;;3.5;;
49582;SDS011;36329;48.816;44.624;2023-08-06T21:35:50;8;;;3.6;;
49582;SDS011;36329;48.816;44.624;2023-08-06T21:38:53;8.6;;;3.4;;
49582;SDS011;36329;48.816;44.624;2023-08-06T21:41:55;7.4;;;3.2;;
49582;SDS011;36329;48.816;44.624;2023-08-06T21:44:57;7;;;3.2;;
49582;SDS011;36329;48.816;44.624;2023-08-06T21:47:59;6.7;;;3;;
49582;SDS011;36329;48.816;44.624;2023-08-06T21:51:01;10.3;;;3.2;;
49582;SDS011;36329;48.816;44.624;2023-08-06T21:54:04;8.3;;;3.1;;
49582;SDS011;36329;48.816;44.624;2023-08-06T21:57:06;8.7;;;3.8;;
49582;SDS011;36329;48.816;44.624;2023-08-06T22:00:08;9.3;;;3.5;;
49582;SDS011;36329;48.816;44.624;2023-08-06T22:03:10;7.4;;;3.2;;
49582;SDS011;36329;48.816;44.624;2023-08-06T22:06:13;8.4;;;3.4;;
49582;SDS011;36329;48.816;44.624;2023-08-06T22:09:15;7.6;;;3.4;;
49582;SDS011;36329;48.816;44.624;2023-08-06T22:12:17;7.4;;;3.6;;
49582;SDS011;36329;48.816;44.624;2023-08-06T22:15:19;6.6;;;3.3;;
49582;SDS011;36329;48.816;44.624;2023-08-06T22:18:21;5.3;;;3.3;;
49582;SDS011;36329;48.816;44.624;2023-08-06T22:21:23;7.7;;;3.5;;
49582;SDS011;36329;48.816;44.624;2023-08-06T22:24:26;5.1;;;3.1;;
49582;SDS011;36329;48.816;44.624;2023-08-06T22:27:28;9.3;;;3.3;;
49582;SDS011;36329;48.816;44.624;2023-08-06T22:30:30;6.9;;;3.2;;
49582;SDS011;36329;48.816;44.624;2023-08-06T22:33:32;7.4;;;3.3;;
49582;SDS011;36329;48.816;44.624;2023-08-06T22:36:34;5.8;;;3;;
49582;SDS011;36329;48.816;44.624;2023-08-06T22:39:36;4.5;;;3.4;;
49582;SDS011;36329;48.816;44.624;2023-08-06T22:42:38;6.7;;;3.3;;
49582;SDS011;36329;48.816;44.624;2023-08-06T22:45:40;9.4;;;3.1;;
49582;SDS011;36329;48.816;44.624;2023-08-06T22:48:42;5.2;;;3.1;;
49582;SDS011;36329;48.816;44.624;2023-08-06T22:51:44;8.5;;;3.3;;
49582;SDS011;36329;48.816;44.624;2023-08-06T22:54:46;9.1;;;3.3;;
49582;SDS011;36329;48.816;44.624;2023-08-06T22:57:48;7.3;;;3.5;;
49582;SDS011;36329;48.816;44.624;2023-08-06T23:00:50;6.5;;;3.4;;
49582;SDS011;36329;48.816;44.624;2023-08-06T23:03:52;7.2;;;3.2;;
49582;SDS011;36329;48.816;44.624;2023-08-06T23:06:54;5.1;;;3.1;;
49582;SDS011;36329;48.816;44.624;2023-08-06T23:09:56;6.5;;;3.2;;
49582;SDS011;36329;48.816;44.624;2023-08-06T23:12:58;6.3;;;3.3;;
49582;SDS011;36329;48.816;44.624;2023-08-06T23:16:00;7.2;;;3.2;;
49582;SDS011;36329;48.816;44.624;2023-08-06T23:19:02;5.2;;;3.2;;
49582;SDS011;36329;48.816;44.624;2023-08-06T23:22:04;6.5;;;3.1;;
49582;SDS011;36329;48.816;44.624;2023-08-06T23:25:08;5.3;;;3.2;;
49582;SDS011;36329;48.816;44.624;2023-08-06T23:31:56;7;;;3.1;;
49582;SDS011;36329;48.816;44.624;2023-08-06T23:34:58;6.2;;;3;;
49582;SDS011;36329;48.816;44.624;2023-08-06T23:38:00;8.6;;;3.1;;
49582;SDS011;36329;48.816;44.624;2023-08-06T23:41:02;7.5;;;3.3;;
49582;SDS011;36329;48.816;44.624;2023-08-06T23:44:03;4.6;;;3;;
49582;SDS011;36329;48.816;44.624;2023-08-06T23:47:06;5.2;;;3;;
49582;SDS011;36329;48.816;44.624;2023-08-06T23:50:08;5.3;;;2.9;;
49582;SDS011;36329;48.816;44.624;2023-08-06T23:53:10;6.6;;;3.2;;
49582;SDS011;36329;48.816;44.624;2023-08-06T23:56:12;6.7;;;3.1;;
49582;SDS011;36329;48.816;44.624;2023-08-06T23:59:14;6;;;3;;
